Time;durP1;ratioP1;P1;durP2;ratioP2;P2;SDS_P1;SDS_P2;PMS_P1;PMS_P2;Temp;Humidity;BMP_temperature;BMP_pressure;BME280_temperature;BME280_humidity;BME280_pressure;Samples;Min_cycle;Max_cycle;Signal;HPM_P1;HPM_P2
2023/05/10 00:00:16;;;;;;;16.00;7.53;;;;;;;9.54;69.34;101191.69;125236;1086;104373;-78
2023/05/10 00:03:05;;;;;;;15.73;7.53;;;;;;;9.58;69.77;101187.48;125114;1089;104309;-78
2023/05/10 00:05:33;;;;;;;16.30;7.77;;;;;;;9.56;69.25;101182.17;125234;1086;104395;-79
2023/05/10 00:08:02;;;;;;;16.77;7.70;;;;;;;9.55;69.23;101180.36;125251;1086;104329;-79
2023/05/10 00:10:30;;;;;;;16.10;7.80;;;;;;;9.54;69.95;101184.71;125198;1086;104520;-78
2023/05/10 00:12:59;;;;;;;16.33;7.37;;;;;;;9.53;69.35;101180.28;125264;1086;104244;-78
2023/05/10 00:15:27;;;;;;;16.07;7.43;;;;;;;9.50;69.52;101177.50;125170;1086;104267;-79
2023/05/10 00:17:56;;;;;;;19.03;8.23;;;;;;;9.47;70.49;101179.08;125391;1086;104244;-79
2023/05/10 00:20:24;;;;;;;16.10;7.63;;;;;;;9.42;69.84;101178.84;125307;1086;104443;-80
2023/05/10 00:22:53;;;;;;;18.53;7.93;;;;;;;9.40;70.07;101174.37;125282;1086;104312;-79
2023/05/10 00:25:21;;;;;;;19.47;8.43;;;;;;;9.39;69.76;101175.18;125328;1086;104356;-80
2023/05/10 00:27:50;;;;;;;18.47;7.80;;;;;;;9.37;70.23;101168.98;125259;1086;104854;-78
2023/05/10 00:30:19;;;;;;;19.25;8.45;;;;;;;9.36;70.32;101170.67;125317;1087;104414;-79
2023/05/10 00:32:48;;;;;;;17.77;8.27;;;;;;;9.34;69.82;101170.59;125200;1086;104731;-78
2023/05/10 00:35:16;;;;;;;16.53;7.77;;;;;;;9.33;70.37;101173.13;125106;1088;104511;-78
2023/05/10 00:37:45;;;;;;;17.73;8.00;;;;;;;9.31;70.55;101174.78;125190;1086;104386;-79
2023/05/10 00:40:14;;;;;;;20.67;8.73;;;;;;;9.27;70.53;101176.36;125289;1089;104305;-79
2023/05/10 00:42:44;;;;;;;18.00;7.83;;;;;;;9.23;70.74;101171.77;125346;1086;104241;-79
2023/05/10 00:45:12;;;;;;;18.17;8.10;;;;;;;9.17;70.13;101176.69;125152;1086;104238;-79
2023/05/10 00:47:41;;;;;;;19.90;8.45;;;;;;;9.10;70.53;101167.62;125265;1086;104334;-80
2023/05/10 00:50:11;;;;;;;19.13;8.37;;;;;;;9.06;70.71;101165.65;125309;1086;104338;-79
2023/05/10 00:52:40;;;;;;;20.93;9.13;;;;;;;9.03;70.78;101162.87;125367;1086;104364;-80
2023/05/10 00:55:11;;;;;;;18.40;7.77;;;;;;;9.06;70.98;101159.52;125265;1089;104321;-79
2023/05/10 00:57:40;;;;;;;17.20;8.20;;;;;;;9.08;70.29;101163.11;125360;1089;104341;-80
2023/05/10 01:00:12;;;;;;;19.20;8.07;;;;;;;9.08;70.94;101155.26;125265;1089;104407;-80
2023/05/10 01:02:42;;;;;;;17.10;7.57;;;;;;;9.06;70.95;101155.18;125375;1086;104375;-79
2023/05/10 01:05:11;;;;;;;17.07;8.20;;;;;;;9.06;70.50;101165.65;125326;1089;104401;-78
2023/05/10 01:07:39;;;;;;;17.60;7.50;;;;;;;9.00;71.04;101165.33;125225;1086;104264;-79
2023/05/10 01:10:10;;;;;;;18.83;8.37;;;;;;;8.94;71.83;101165.00;125151;1089;104359;-78
2023/05/10 01:12:41;;;;;;;18.80;8.10;;;;;;;8.89;71.16;101167.38;125377;1086;104379;-80
2023/05/10 01:15:12;;;;;;;17.90;8.60;;;;;;;8.86;71.54;101164.59;125439;1086;104320;-80
2023/05/10 01:17:42;;;;;;;19.20;7.53;;;;;;;8.87;71.10;101166.41;125420;1086;104201;-80
2023/05/10 01:20:12;;;;;;;17.33;7.63;;;;;;;8.87;71.57;101161.17;125599;1086;104236;-81
2023/05/10 01:23:21;;;;;;;18.73;7.93;;;;;;;8.91;70.85;101165.77;125379;1086;104290;-80
2023/05/10 01:26:36;;;;;;;14.80;7.00;;;;;;;8.91;70.79;101167.45;125410;1086;104346;-80
2023/05/10 01:29:25;;;;;;;17.42;7.22;;;;;;;8.92;70.82;101167.54;125469;1086;104296;-81
2023/05/10 01:32:15;;;;;;;18.47;6.73;;;;;;;8.96;70.82;101164.28;125425;1089;104366;-79
2023/05/10 01:34:53;;;;;;;15.53;6.93;;;;;;;8.97;70.90;101160.82;125512;1086;104222;-79
2023/05/10 01:37:29;;;;;;;16.83;6.87;;;;;;;8.95;70.96;101153.72;125536;1089;104301;-80
2023/05/10 01:40:03;;;;;;;17.30;6.77;;;;;;;8.91;70.82;101152.67;125562;1086;104338;-80
2023/05/10 01:42:41;;;;;;;14.77;6.80;;;;;;;8.89;70.90;101153.41;126114;1087;104347;-79
2023/05/10 01:45:16;;;;;;;17.97;6.60;;;;;;;8.88;71.31;101154.20;125618;1086;104296;-80
2023/05/10 01:47:49;;;;;;;17.60;6.83;;;;;;;8.87;71.31;101161.17;125453;1086;104238;-78
2023/05/10 01:50:22;;;;;;;14.43;7.10;;;;;;;8.88;70.96;101152.52;125449;1086;104241;-77
2023/05/10 01:52:55;;;;;;;16.62;7.17;;;;;;;8.86;71.59;101156.74;125466;1086;104266;-78
2023/05/10 01:55:27;;;;;;;18.93;7.10;;;;;;;8.84;71.17;101155.77;125467;1086;104296;-79
2023/05/10 01:58:04;;;;;;;17.37;7.00;;;;;;;8.79;71.04;101150.30;125549;1086;104168;-79
2023/05/10 02:00:33;;;;;;;17.37;7.50;;;;;;;8.75;71.17;101155.28;125654;1089;104727;-79
2023/05/10 02:03:06;;;;;;;16.13;7.00;;;;;;;8.72;71.76;101155.11;125789;1089;104443;-78
2023/05/10 02:05:39;;;;;;;15.23;6.70;;;;;;;8.71;71.94;101154.23;125493;1086;104308;-79
2023/05/10 02:08:10;;;;;;;19.43;8.03;;;;;;;8.72;72.28;101155.11;125624;1086;104296;-79
2023/05/10 02:10:41;;;;;;;16.43;7.20;;;;;;;8.68;72.08;101153.14;125621;1086;104296;-78
2023/05/10 02:13:11;;;;;;;16.50;7.00;;;;;;;8.64;71.48;101147.74;125828;1089;104308;-78
2023/05/10 02:15:41;;;;;;;18.97;7.40;;;;;;;8.66;71.50;101149.55;125520;1089;104293;-78
2023/05/10 02:18:13;;;;;;;16.67;7.17;;;;;;;8.69;72.04;101155.84;125668;1086;104248;-78
2023/05/10 02:20:42;;;;;;;18.90;9.00;;;;;;;8.69;71.61;101153.22;125565;1089;104277;-78
2023/05/10 02:23:11;;;;;;;24.90;11.67;;;;;;;8.69;72.37;101155.84;125644;1089;104196;-78
2023/05/10 02:25:41;;;;;;;25.43;13.43;;;;;;;8.70;72.05;101156.77;125568;1086;104244;-77
2023/05/10 02:28:12;;;;;;;24.43;12.93;;;;;;;8.69;72.43;101150.61;125486;1086;104385;-77
2023/05/10 02:30:41;;;;;;;21.93;13.27;;;;;;;8.68;72.62;101147.91;125382;1086;104283;-78
2023/05/10 02:33:11;;;;;;;22.93;11.97;;;;;;;8.70;72.70;101151.53;125327;1086;104293;-79
2023/05/10 02:35:41;;;;;;;24.27;12.20;;;;;;;8.69;71.94;101154.95;125478;1086;104427;-80
2023/05/10 02:38:13;;;;;;;19.83;10.20;;;;;;;8.68;72.75;101153.14;125502;1086;104303;-80
2023/05/10 02:40:43;;;;;;;19.80;9.27;;;;;;;8.63;72.94;101156.43;125486;1089;104436;-80
2023/05/10 02:43:14;;;;;;;19.03;8.40;;;;;;;8.59;72.40;101154.45;125955;1086;104816;-80
2023/05/10 02:45:47;;;;;;;16.93;8.20;;;;;;;8.55;73.18;101157.70;125509;1086;104296;-79
2023/05/10 02:48:16;;;;;;;20.70;8.30;;;;;;;8.52;73.17;101154.92;125462;1086;104212;-78
2023/05/10 02:50:50;;;;;;;19.70;8.80;;;;;;;8.52;73.56;101154.92;125545;1089;104338;-80
2023/05/10 02:53:30;;;;;;;17.17;8.47;;;;;;;8.50;73.11;101153.95;125597;1088;104228;-79
2023/05/10 02:56:04;;;;;;;21.00;8.37;;;;;;;8.51;73.58;101154.84;125468;1086;104424;-80
2023/05/10 02:58:32;;;;;;;;;;;;;;;8.53;73.34;101159.35;125634;1086;104372;-80
2023/05/10 03:01:00;;;;;;;19.50;8.00;;;;;;;8.54;73.04;101161.16;125432;1086;104244;-80
2023/05/10 03:03:29;;;;;;;18.93;8.23;;;;;;;8.53;73.41;101163.70;125820;1086;104171;-80
2023/05/10 03:05:58;;;;;;;22.47;8.73;;;;;;;8.54;73.05;101169.02;125931;1089;104354;-80
2023/05/10 03:08:29;;;;;;;17.43;8.07;;;;;;;8.57;73.54;101161.33;125772;1089;104520;-81
2023/05/10 03:11:17;;;;;;;19.93;8.73;;;;;;;8.61;73.49;101165.89;125912;1089;104228;-80
2023/05/10 03:13:57;;;;;;;18.40;7.50;;;;;;;8.61;73.81;101167.62;125852;1089;104193;-79
2023/05/10 03:16:32;;;;;;;17.73;7.97;;;;;;;8.63;74.06;101166.89;126027;1089;104274;-79
2023/05/10 03:19:11;;;;;;;17.50;8.43;;;;;;;8.71;73.52;101169.00;125609;1086;117852;-79
2023/05/10 03:21:43;;;;;;;19.13;7.87;;;;;;;8.75;73.60;101173.59;125804;1086;104378;-80
2023/05/10 03:24:15;;;;;;;16.37;7.33;;;;;;;8.79;74.17;101179.08;125656;1089;104331;-80
2023/05/10 03:26:45;;;;;;;17.17;7.80;;;;;;;8.81;74.14;101176.55;125621;1086;105661;-80
2023/05/10 03:29:19;;;;;;;16.07;7.57;;;;;;;8.83;74.18;101174.90;125599;1090;104261;-80
2023/05/10 03:31:47;;;;;;;20.93;8.20;;;;;;;8.85;74.20;101174.98;125652;1089;104347;-80
2023/05/10 03:34:17;;;;;;;17.47;7.80;;;;;;;8.86;75.12;101177.68;125631;1087;104360;-81
2023/05/10 03:36:45;;;;;;;18.10;7.77;;;;;;;8.88;74.22;101170.83;125707;1089;104236;-81
2023/05/10 03:39:14;;;;;;;16.93;8.10;;;;;;;8.91;74.29;101175.31;125747;1086;104302;-80
2023/05/10 03:41:43;;;;;;;17.97;7.97;;;;;;;8.93;74.81;101181.55;125575;1089;104245;-81
2023/05/10 03:44:11;;;;;;;16.73;7.27;;;;;;;8.92;74.43;101178.01;125585;1086;104382;-81
2023/05/10 03:46:40;;;;;;;14.90;7.60;;;;;;;8.95;75.29;101180.79;125665;1089;104328;-81
2023/05/10 03:49:08;;;;;;;16.23;7.43;;;;;;;8.97;74.89;101188.72;125600;1086;104244;-80
2023/05/10 03:51:38;;;;;;;18.13;7.20;;;;;;;8.97;74.54;101183.48;125764;1089;104347;-82
2023/05/10 03:54:07;;;;;;;15.40;7.43;;;;;;;8.97;74.50;101183.48;125649;1089;104299;-80
2023/05/10 03:56:36;;;;;;;16.27;7.53;;;;;;;8.99;74.70;101188.00;125421;1086;102142;-78
2023/05/10 03:59:07;;;;;;;16.33;7.53;;;;;;;9.03;75.18;101182.92;125303;1086;104418;-78
2023/05/10 04:01:35;;;;;;;15.73;7.27;;;;;;;9.08;74.54;101189.30;125250;1089;104688;-78
2023/05/10 04:04:05;;;;;;;13.20;6.47;;;;;;;9.12;74.76;101186.03;125449;1089;104325;-78
2023/05/10 04:06:34;;;;;;;16.83;7.40;;;;;;;9.17;74.92;101190.66;125549;1087;104327;-77
2023/05/10 04:09:04;;;;;;;17.70;7.13;;;;;;;9.23;74.50;101184.86;125220;1086;104296;-79
2023/05/10 04:11:32;;;;;;;14.67;6.30;;;;;;;9.27;74.64;101185.91;125290;1088;104376;-78
2023/05/10 04:14:03;;;;;;;14.90;6.73;;;;;;;9.28;73.96;101188.61;125497;1089;104324;-79
2023/05/10 04:16:32;;;;;;;14.63;6.40;;;;;;;9.33;74.37;101189.77;125274;1086;104258;-78
2023/05/10 04:19:00;;;;;;;14.73;6.60;;;;;;;9.40;73.79;101190.09;125382;1086;104200;-78
2023/05/10 04:21:29;;;;;;;12.53;5.73;;;;;;;9.45;73.98;101193.83;125308;1086;104784;-79
2023/05/10 04:23:57;;;;;;;16.15;6.10;;;;;;;9.52;73.63;101193.30;125464;1086;104468;-78
2023/05/10 04:26:26;;;;;;;13.57;6.47;;;;;;;9.56;73.37;101189.14;125243;1086;104286;-81
2023/05/10 04:28:54;;;;;;;13.33;6.20;;;;;;;9.61;73.45;101193.77;125841;1089;104261;-81
2023/05/10 04:31:23;;;;;;;14.20;6.00;;;;;;;9.66;73.60;101189.69;125529;1086;104372;-79
2023/05/10 04:33:52;;;;;;;15.33;5.90;;;;;;;9.73;72.82;101190.00;125459;1089;104414;-79
2023/05/10 04:36:20;;;;;;;12.37;5.70;;;;;;;9.77;73.06;101191.92;125276;1086;104370;-79
2023/05/10 04:38:49;;;;;;;13.43;5.97;;;;;;;9.83;73.02;101190.53;125479;1086;104213;-77
2023/05/10 04:41:17;;;;;;;14.10;6.03;;;;;;;9.89;72.26;101192.53;125382;1086;104181;-77
2023/05/10 04:43:46;;;;;;;14.27;5.97;;;;;;;9.95;71.95;101190.22;125627;1086;104155;-77
2023/05/10 04:46:15;;;;;;;13.20;5.27;;;;;;;10.03;72.20;101187.98;125498;1086;104319;-76
2023/05/10 04:48:43;;;;;;;12.23;5.40;;;;;;;10.08;71.40;101194.33;125641;1086;104366;-79
2023/05/10 04:51:12;;;;;;;13.90;5.53;;;;;;;10.18;71.87;101198.33;125834;1086;104289;-77
2023/05/10 04:53:41;;;;;;;16.23;6.33;;;;;;;10.24;71.44;101196.00;125758;1089;104765;-79
2023/05/10 04:56:10;;;;;;;16.20;5.97;;;;;;;10.30;71.05;101193.67;125736;1086;104244;-78
2023/05/10 04:58:39;;;;;;;15.97;6.17;;;;;;;10.39;70.84;101188.90;126001;1086;104393;-79
2023/05/10 05:01:09;;;;;;;15.83;6.00;;;;;;;10.43;70.50;101193.44;125947;1086;107070;-78
2023/05/10 05:03:38;;;;;;;13.80;6.05;;;;;;;10.53;71.31;101180.75;125979;1086;104273;-77
2023/05/10 05:06:07;;;;;;;14.57;5.50;;;;;;;10.64;70.99;101186.51;125532;1086;104257;-76
2023/05/10 05:08:37;;;;;;;12.43;5.10;;;;;;;10.73;70.63;101189.56;125899;1086;104398;-78
2023/05/10 05:11:06;;;;;;;12.23;5.60;;;;;;;10.81;70.78;101185.55;125900;1086;104475;-87
2023/05/10 05:13:34;;;;;;;11.07;5.07;;;;;;;10.92;69.69;101186.03;125807;1086;104241;-77
2023/05/10 05:16:03;;;;;;;13.97;5.90;;;;;;;11.02;69.04;101182.13;125514;1086;104227;-77
2023/05/10 05:18:32;;;;;;;12.73;5.07;;;;;;;11.07;68.26;101184.10;126270;1086;104215;-80
2023/05/10 05:21:01;;;;;;;11.37;5.10;;;;;;;11.13;68.50;101184.38;126260;1086;104324;-77
2023/05/10 05:23:32;;;;;;;12.63;5.50;;;;;;;11.13;68.41;101181.75;126546;1086;104376;-79
2023/05/10 05:26:01;;;;;;;7.83;4.70;;;;;;;11.23;67.91;101187.41;126566;1086;102349;-76
2023/05/10 05:28:32;;;;;;;9.20;4.90;;;;;;;11.29;67.88;101182.42;126517;1086;104235;-81
2023/05/10 05:31:01;;;;;;;17.80;5.03;;;;;;;11.37;67.51;101183.64;126846;1086;102118;-80
2023/05/10 05:33:30;;;;;;;12.63;5.30;;;;;;;11.50;67.87;101174.59;126853;1086;104170;-76
2023/05/10 05:36:01;;;;;;;11.63;5.20;;;;;;;11.63;67.85;101181.25;126475;1086;104289;-77
2023/05/10 05:38:30;;;;;;;12.67;5.27;;;;;;;11.75;67.24;101176.51;126584;1086;102139;-78
2023/05/10 05:40:58;;;;;;;12.93;5.50;;;;;;;11.83;67.66;101177.72;126044;1086;104174;-79
2023/05/10 05:43:28;;;;;;;11.73;4.80;;;;;;;11.92;67.81;101179.87;126403;1086;104229;-78
2023/05/10 05:45:57;;;;;;;8.67;4.50;;;;;;;12.03;67.89;101177.69;126570;1088;104235;-79
2023/05/10 05:48:26;;;;;;;11.05;5.20;;;;;;;12.12;67.00;101175.39;126300;1086;102719;-76
2023/05/10 05:50:56;;;;;;;15.13;4.87;;;;;;;12.17;66.79;101171.23;126549;1086;104449;-79
2023/05/10 05:53:25;;;;;;;14.20;4.80;;;;;;;12.23;66.21;101174.11;126583;1086;104184;-80
2023/05/10 05:55:55;;;;;;;11.30;4.90;;;;;;;12.32;65.28;101177.94;126387;1086;102010;-78
2023/05/10 05:58:24;;;;;;;9.03;4.97;;;;;;;12.43;64.16;101178.36;126444;1086;102207;-81
2023/05/10 06:00:55;;;;;;;9.23;4.70;;;;;;;12.53;64.50;101172.63;126483;1089;104231;-76
2023/05/10 06:03:27;;;;;;;8.97;4.50;;;;;;;12.59;63.08;101171.11;126252;1086;102262;-78
2023/05/10 06:05:56;;;;;;;11.33;4.33;;;;;;;12.62;63.68;101170.34;127002;1086;104212;-79
2023/05/10 06:08:26;;;;;;;7.90;4.10;;;;;;;12.66;63.29;101169.60;126854;1086;104181;-79
2023/05/10 06:11:00;;;;;;;9.43;4.40;;;;;;;12.73;63.04;101174.27;126882;1086;104156;-80
2023/05/10 06:13:32;;;;;;;6.63;4.13;;;;;;;12.81;63.71;101173.64;126722;1086;104373;-79
2023/05/10 06:16:01;;;;;;;12.20;4.40;;;;;;;12.86;61.90;101177.36;128031;1089;101796;-82
2023/05/10 06:18:32;;;;;;;9.07;4.43;;;;;;;12.96;62.42;101171.58;128231;1086;101745;-81
2023/05/10 06:21:15;;;;;;;;;;;;;;;;;;;;;
2023/05/10 06:23:44;;;;;;;12.10;4.17;;;;;;;13.14;62.47;101174.00;126615;1086;103260;-77
2023/05/10 06:26:14;;;;;;;13.70;4.37;;;;;;;13.20;61.14;101163.67;126606;1086;102194;-77
2023/05/10 06:28:42;;;;;;;9.20;4.40;;;;;;;13.24;60.58;101165.55;126602;1086;104337;-78
2023/05/10 06:31:12;;;;;;;11.40;4.30;;;;;;;13.28;61.10;101164.84;126441;1086;104201;-79
2023/05/10 06:33:40;;;;;;;9.33;4.40;;;;;;;13.33;60.40;101156.20;126690;1086;102667;-81
2023/05/10 06:36:11;;;;;;;10.43;4.00;;;;;;;13.41;59.07;101160.91;126588;1089;104316;-78
2023/05/10 06:38:42;;;;;;;10.77;4.37;;;;;;;13.53;58.67;101163.09;126265;1086;102722;-80
2023/05/10 06:41:12;;;;;;;7.17;3.47;;;;;;;13.64;56.81;101160.81;126530;1085;104213;-76
2023/05/10 06:43:43;;;;;;;7.47;3.80;;;;;;;13.73;58.16;101173.40;126437;1086;104212;-79
2023/05/10 06:46:14;;;;;;;5.92;3.30;;;;;;;13.81;58.85;101164.02;126342;1086;102397;-75
2023/05/10 06:48:43;;;;;;;8.23;3.63;;;;;;;13.86;55.72;101159.78;126427;1086;104194;-74
2023/05/10 06:51:15;;;;;;;6.03;3.40;;;;;;;13.92;56.14;101156.46;126174;1086;104261;-78
2023/05/10 06:53:44;;;;;;;6.20;3.20;;;;;;;14.00;53.28;101161.12;126502;1086;104046;-76
2023/05/10 06:56:13;;;;;;;4.73;3.10;;;;;;;14.06;56.05;101162.19;126241;1089;104258;-78
2023/05/10 06:58:42;;;;;;;7.80;3.40;;;;;;;14.19;57.16;101159.98;126090;1086;102223;-77
2023/05/10 07:01:11;;;;;;;6.43;3.10;;;;;;;14.36;53.29;101164.88;126199;1086;104088;-75
2023/05/10 07:03:40;;;;;;;6.63;3.10;;;;;;;14.60;54.23;101162.13;126386;1086;102845;-75
2023/05/10 07:06:10;;;;;;;7.87;3.30;;;;;;;14.79;56.13;101162.64;126193;1086;104198;-79
2023/05/10 07:08:40;;;;;;;7.07;4.00;;;;;;;14.89;55.24;101162.07;126246;1086;104203;-78
2023/05/10 07:11:10;;;;;;;7.57;3.23;;;;;;;15.08;54.95;101174.97;126320;1086;104373;-76
2023/05/10 07:13:43;;;;;;;5.40;3.17;;;;;;;15.23;54.15;101165.66;126412;1086;104267;-82
2023/05/10 07:16:14;;;;;;;;;;;;;;;15.38;51.06;101159.88;126540;1086;104229;-79
2023/05/10 07:18:42;;;;;;;7.57;3.33;;;;;;;15.52;51.82;101163.80;126733;1086;104232;-78
2023/05/10 07:21:11;;;;;;;5.57;2.90;;;;;;;15.59;52.18;101163.08;126514;1089;104213;-77
2023/05/10 07:23:40;;;;;;;6.60;3.33;;;;;;;15.51;50.20;101171.69;126708;1086;104223;-78
2023/05/10 07:26:12;;;;;;;5.97;3.23;;;;;;;15.41;49.06;101162.59;126563;1086;102260;-79
2023/05/10 07:28:40;;;;;;;6.13;2.93;;;;;;;15.41;51.23;101158.23;126497;1086;102748;-76
2023/05/10 07:31:09;;;;;;;9.30;3.30;;;;;;;15.36;50.82;101151.02;126510;1086;104204;-81
2023/05/10 07:33:38;;;;;;;4.73;3.00;;;;;;;15.41;49.65;101159.95;126505;1086;104066;-78
2023/05/10 07:36:11;;;;;;;4.93;2.70;;;;;;;15.59;48.86;101157.80;126817;1086;104206;-79
2023/05/10 07:38:40;;;;;;;7.03;3.00;;;;;;;15.72;49.56;101155.45;126715;1089;104248;-74
2023/05/10 07:41:11;;;;;;;7.43;3.23;;;;;;;15.86;45.31;101158.48;126906;1086;102549;-76
2023/05/10 07:43:40;;;;;;;5.37;2.67;;;;;;;16.06;48.64;101157.20;126613;1086;102804;-77
2023/05/10 07:46:09;;;;;;;4.80;3.17;;;;;;;16.16;49.47;101163.64;126389;1086;104187;-86
2023/05/10 07:48:38;;;;;;;9.03;3.23;;;;;;;16.24;49.14;101167.34;126215;1085;102356;-81
2023/05/10 07:51:09;;;;;;;6.63;2.80;;;;;;;16.21;47.38;101166.39;126617;1086;104154;-80
2023/05/10 07:53:38;;;;;;;4.27;2.97;;;;;;;16.21;47.52;101163.75;126350;1089;103785;-79
2023/05/10 07:56:22;;;;;;;5.37;3.00;;;;;;;16.27;48.25;101158.59;126753;1086;102285;-81
2023/05/10 07:58:50;;;;;;;;;;;;;;;16.47;47.52;101159.92;126686;1086;102904;-80
2023/05/10 08:01:19;;;;;;;5.50;2.83;;;;;;;16.42;43.39;101165.97;126578;1086;104176;-79
2023/05/10 08:03:51;;;;;;;5.27;2.73;;;;;;;16.18;44.55;101165.44;126606;1086;104210;-80
2023/05/10 08:06:29;;;;;;;5.13;2.90;;;;;;;16.13;43.77;101163.56;126525;1089;104230;-78
2023/05/10 08:08:58;;;;;;;6.97;3.20;;;;;;;15.99;43.53;101163.23;126612;1086;104191;-81
2023/05/10 08:11:30;;;;;;;5.07;2.70;;;;;;;15.90;43.74;101160.36;126589;1086;102403;-81
2023/05/10 08:14:00;;;;;;;9.23;3.00;;;;;;;16.04;44.70;101153.64;126902;1089;102127;-83
2023/05/10 08:16:29;;;;;;;4.23;2.60;;;;;;;16.36;42.56;101153.47;127019;1086;102438;-82
2023/05/10 08:18:58;;;;;;;4.60;2.80;;;;;;;16.43;42.72;101165.13;126527;1089;102486;-78
2023/05/10 08:21:27;;;;;;;4.67;2.80;;;;;;;16.37;40.54;101167.62;126314;1086;104028;-81
2023/05/10 08:24:05;;;;;;;5.53;3.00;;;;;;;16.34;42.22;101163.14;126372;1086;104235;-80
2023/05/10 08:26:40;;;;;;;5.53;2.90;;;;;;;16.33;41.69;101158.70;126515;1086;102894;-80
2023/05/10 08:29:09;;;;;;;6.87;2.90;;;;;;;16.38;42.18;101161.45;126664;1086;104264;-80
2023/05/10 08:31:38;;;;;;;4.70;2.90;;;;;;;16.38;41.12;101165.02;126591;1089;104426;-77
2023/05/10 08:34:10;;;;;;;8.93;3.20;;;;;;;16.25;42.50;101153.27;126446;1086;104253;-77
2023/05/10 08:36:39;;;;;;;4.70;3.20;;;;;;;16.22;40.66;101152.27;126638;1086;102309;-79
2023/05/10 08:39:08;;;;;;;5.33;3.10;;;;;;;16.28;40.95;101147.12;126590;1086;104366;-78
2023/05/10 08:41:39;;;;;;;3.43;2.60;;;;;;;16.19;40.83;101158.41;126613;1086;104158;-76
2023/05/10 08:44:09;;;;;;;5.40;2.70;;;;;;;16.01;41.48;101158.86;126722;1086;104308;-81
2023/05/10 08:46:43;;;;;;;3.73;2.87;;;;;;;15.98;40.98;101150.84;126622;1086;104286;-80
2023/05/10 08:49:17;;;;;;;5.07;3.10;;;;;;;16.04;41.88;101153.64;126587;1086;102332;-78
2023/05/10 08:51:52;;;;;;;11.00;3.50;;;;;;;16.11;41.46;101146.73;126608;1086;104150;-77
2023/05/10 08:54:22;;;;;;;4.97;2.70;;;;;;;16.20;41.14;101151.35;126605;1086;104175;-78
2023/05/10 08:56:57;;;;;;;4.53;3.40;;;;;;;16.45;40.70;101142.20;126637;1089;104346;-78
2023/05/10 08:59:27;;;;;;;5.27;3.10;;;;;;;16.75;41.70;101138.41;126981;1086;104282;-79
2023/05/10 09:02:00;;;;;;;6.10;3.07;;;;;;;16.92;41.61;101136.13;127087;1086;102349;-78
2023/05/10 09:04:31;;;;;;;5.73;3.00;;;;;;;16.87;38.92;101142.23;126789;1086;104180;-78
2023/05/10 09:06:59;;;;;;;3.57;2.70;;;;;;;16.72;39.32;101147.20;126836;1086;102334;-78
2023/05/10 09:09:29;;;;;;;3.67;2.90;;;;;;;16.60;39.75;101136.35;126864;1086;102220;-78
2023/05/10 09:11:58;;;;;;;6.13;3.10;;;;;;;16.60;40.70;101129.28;126235;1086;104335;-78
2023/05/10 09:14:27;;;;;;;6.30;2.90;;;;;;;16.50;40.24;101136.15;126405;1086;104235;-78
2023/05/10 09:16:56;;;;;;;6.67;3.20;;;;;;;16.27;39.07;101130.34;126490;1086;102204;-77
2023/05/10 09:19:30;;;;;;;4.97;2.90;;;;;;;16.18;39.40;101138.08;126706;1086;104174;-80
2023/05/10 09:22:05;;;;;;;7.00;3.20;;;;;;;16.06;39.89;101130.73;126637;1086;104232;-76
2023/05/10 09:24:33;;;;;;;4.57;2.90;;;;;;;16.04;39.43;101127.17;126761;1086;102385;-78
2023/05/10 09:27:07;;;;;;;8.35;3.70;;;;;;;16.07;37.30;101131.66;126582;1086;104156;-78
2023/05/10 09:29:45;;;;;;;6.43;3.27;;;;;;;16.26;39.79;101127.66;126138;1086;104231;-75
2023/05/10 09:32:16;;;;;;;7.83;3.20;;;;;;;16.42;40.07;101124.47;126653;1086;104188;-78
2023/05/10 09:34:45;;;;;;;7.43;3.30;;;;;;;16.75;39.97;101119.86;126257;1085;104266;-79
2023/05/10 09:37:16;;;;;;;5.83;2.90;;;;;;;16.94;39.76;101115.84;126277;1089;102970;-78
2023/05/10 09:39:54;;;;;;;5.27;3.10;;;;;;;17.09;40.01;101109.95;126245;1086;104187;-79
2023/05/10 09:42:24;;;;;;;4.97;2.73;;;;;;;17.15;39.72;101118.91;126247;1086;104209;-75
2023/05/10 09:45:02;;;;;;;6.83;3.30;;;;;;;17.20;38.96;101109.30;126279;1086;104159;-76
2023/05/10 09:47:31;;;;;;;4.73;2.60;;;;;;;17.35;39.38;101099.81;126386;1086;102814;-80
2023/05/10 09:50:03;;;;;;;4.33;2.80;;;;;;;17.50;39.04;101099.17;126173;1086;104180;-79
2023/05/10 09:52:46;;;;;;;5.70;3.00;;;;;;;17.74;39.64;101093.38;126350;1086;104171;-77
2023/05/10 09:55:16;;;;;;;7.57;3.17;;;;;;;17.99;39.50;101092.02;126100;1085;104257;-74
2023/05/10 09:57:45;;;;;;;8.73;3.27;;;;;;;18.41;39.82;101087.29;126305;1086;104158;-75
2023/05/10 10:00:22;;;;;;;5.17;2.80;;;;;;;18.64;39.10;101085.80;126598;1086;104270;-76
2023/05/10 10:02:58;;;;;;;7.07;3.10;;;;;;;18.87;39.34;101082.56;126360;1089;104212;-73
2023/05/10 10:05:40;;;;;;;6.17;3.17;;;;;;;19.14;39.05;101081.94;126272;1086;104241;-76
2023/05/10 10:08:12;;;;;;;9.77;3.40;;;;;;;19.25;38.30;101076.72;126577;1086;104231;-78
2023/05/10 10:10:41;;;;;;;7.80;3.30;;;;;;;19.07;38.23;101088.06;126613;1086;103742;-74
2023/05/10 10:13:10;;;;;;;7.45;3.05;;;;;;;19.09;37.02;101090.73;126461;1086;102209;-76
2023/05/10 10:15:40;;;;;;;5.67;3.20;;;;;;;18.94;37.26;101083.52;126319;1086;104241;-75
2023/05/10 10:18:12;;;;;;;7.90;3.20;;;;;;;19.02;36.56;101093.33;126482;1090;102588;-75
2023/05/10 10:20:41;;;;;;;5.47;3.07;;;;;;;19.11;38.15;101092.55;126154;1085;102116;-75
2023/05/10 10:23:12;;;;;;;4.77;2.90;;;;;;;19.19;37.34;101085.52;126752;1086;104230;-78
2023/05/10 10:25:44;;;;;;;3.57;2.80;;;;;;;19.23;37.14;101091.79;126485;1086;104152;-76
2023/05/10 10:28:26;;;;;;;4.90;2.90;;;;;;;19.12;37.01;101094.34;126686;1086;102753;-79
2023/05/10 10:31:15;;;;;;;5.47;3.20;;;;;;;19.03;37.38;101094.25;126332;1088;104312;-76
2023/05/10 10:33:56;;;;;;;4.40;2.90;;;;;;;18.97;37.29;101091.52;126208;1086;104213;-75
2023/05/10 10:36:27;;;;;;;4.57;2.83;;;;;;;18.87;37.25;101087.87;126425;1086;105649;-77
2023/05/10 10:39:00;;;;;;;12.13;3.77;;;;;;;18.76;36.75;101093.05;126115;1086;104235;-76
2023/05/10 10:41:34;;;;;;;8.53;3.23;;;;;;;18.65;37.04;101092.91;126938;1086;104508;-79
2023/05/10 10:44:41;;;;;;;8.37;3.60;;;;;;;18.49;36.81;101085.61;126857;1086;104037;-78
2023/05/10 10:47:28;;;;;;;5.53;2.90;;;;;;;18.36;37.21;101089.00;127064;1086;104139;-79
2023/05/10 10:50:10;;;;;;;6.60;2.80;;;;;;;18.31;37.56;101092.48;127223;1086;102455;-77
2023/05/10 10:52:43;;;;;;;10.30;3.43;;;;;;;18.28;37.35;101096.88;127255;1086;102334;-79
2023/05/10 10:55:28;;;;;;;7.70;3.58;;;;;;;18.26;36.96;101098.59;126775;1090;104369;-80
2023/05/10 10:58:05;;;;;;;5.50;2.93;;;;;;;18.11;37.03;101093.98;126585;1086;104171;-78
2023/05/10 11:00:36;;;;;;;6.03;3.43;;;;;;;18.08;36.69;101096.59;126694;1086;102080;-80
2023/05/10 11:03:06;;;;;;;5.70;3.03;;;;;;;18.12;37.01;101090.43;126949;1086;102404;-74
2023/05/10 11:05:40;;;;;;;7.87;3.40;;;;;;;18.24;37.18;101095.03;126893;1086;104235;-74
2023/05/10 11:08:11;;;;;;;;;;;;;;;18.21;34.80;101095.88;126699;1086;102854;-80
2023/05/10 11:10:51;;;;;;;7.33;3.27;;;;;;;18.14;36.56;101086.05;128109;1086;101936;-77
2023/05/10 11:13:38;;;;;;;5.57;2.90;;;;;;;18.20;36.84;101093.20;128018;1086;101719;-79
2023/05/10 11:16:18;;;;;;;4.93;2.93;;;;;;;18.30;36.71;101085.38;128050;1086;101696;-80
2023/05/10 11:19:04;;;;;;;6.93;3.10;;;;;;;18.49;36.67;101082.95;128076;1086;118647;-80
2023/05/10 11:21:54;;;;;;;;;;;;;;;;;;;;;
2023/05/10 11:24:38;;;;;;;4.97;3.03;;;;;;;18.95;37.04;101094.16;128090;1089;101806;-80
2023/05/10 11:27:07;;;;;;;6.57;2.93;;;;;;;18.79;36.21;101094.83;127205;1086;104212;-76
2023/05/10 11:29:37;;;;;;;6.07;3.10;;;;;;;18.47;35.13;101092.69;126416;1086;104373;-77
2023/05/10 11:32:07;;;;;;;4.67;2.90;;;;;;;18.10;35.16;101106.34;126798;1086;104206;-78